sensor_id;sensor_type;location;lat;lon;timestamp;temperature;humidity
23813;DHT22;12087;45.190;5.688;2023-05-02T00:04:48;13.30;99.90
23813;DHT22;12087;45.190;5.688;2023-05-02T00:10:12;13.30;99.90
23813;DHT22;12087;45.190;5.688;2023-05-02T00:15:34;13.30;99.90
23813;DHT22;12087;45.190;5.688;2023-05-02T00:20:56;13.30;99.90
23813;DHT22;12087;45.190;5.688;2023-05-02T00:26:20;13.30;99.90
23813;DHT22;12087;45.190;5.688;2023-05-02T00:31:43;13.30;99.90
23813;DHT22;12087;45.190;5.688;2023-05-02T00:37:05;13.30;99.90
23813;DHT22;12087;45.190;5.688;2023-05-02T00:42:29;13.30;99.90
23813;DHT22;12087;45.190;5.688;2023-05-02T00:47:55;13.30;99.90
23813;DHT22;12087;45.190;5.688;2023-05-02T00:53:17;13.30;99.90
23813;DHT22;12087;45.190;5.688;2023-05-02T00:58:42;13.30;99.90
23813;DHT22;12087;45.190;5.688;2023-05-02T01:04:13;13.30;99.90
23813;DHT22;12087;45.190;5.688;2023-05-02T01:09:54;13.20;99.90
23813;DHT22;12087;45.190;5.688;2023-05-02T01:15:21;13.20;99.90
23813;DHT22;12087;45.190;5.688;2023-05-02T01:20:45;13.20;99.90
23813;DHT22;12087;45.190;5.688;2023-05-02T01:26:16;13.20;99.90
23813;DHT22;12087;45.190;5.688;2023-05-02T01:31:41;13.10;99.90
23813;DHT22;12087;45.190;5.688;2023-05-02T01:37:05;13.10;99.90
23813;DHT22;12087;45.190;5.688;2023-05-02T01:42:31;13.10;99.90
23813;DHT22;12087;45.190;5.688;2023-05-02T01:47:55;13.10;99.90
23813;DHT22;12087;45.190;5.688;2023-05-02T01:53:19;13.10;99.90
23813;DHT22;12087;45.190;5.688;2023-05-02T01:58:42;13.00;99.90
23813;DHT22;12087;45.190;5.688;2023-05-02T02:04:09;13.00;99.90
23813;DHT22;12087;45.190;5.688;2023-05-02T02:09:32;13.00;99.90
23813;DHT22;12087;45.190;5.688;2023-05-02T02:14:57;13.00;99.90
23813;DHT22;12087;45.190;5.688;2023-05-02T02:20:22;12.90;99.90
23813;DHT22;12087;45.190;5.688;2023-05-02T02:25:45;12.90;99.90
23813;DHT22;12087;45.190;5.688;2023-05-02T02:31:08;12.80;99.90
23813;DHT22;12087;45.190;5.688;2023-05-02T02:36:34;12.70;99.90
23813;DHT22;12087;45.190;5.688;2023-05-02T02:42:06;12.70;99.90
23813;DHT22;12087;45.190;5.688;2023-05-02T02:47:35;12.60;99.90
23813;DHT22;12087;45.190;5.688;2023-05-02T02:53:04;12.60;99.90
23813;DHT22;12087;45.190;5.688;2023-05-02T02:58:37;12.50;99.90
23813;DHT22;12087;45.190;5.688;2023-05-02T03:04:02;12.50;99.90
23813;DHT22;12087;45.190;5.688;2023-05-02T03:09:26;12.50;99.90
23813;DHT22;12087;45.190;5.688;2023-05-02T03:14:59;12.50;99.90
23813;DHT22;12087;45.190;5.688;2023-05-02T03:20:21;12.40;99.90
23813;DHT22;12087;45.190;5.688;2023-05-02T03:25:45;12.40;99.90
23813;DHT22;12087;45.190;5.688;2023-05-02T03:31:07;12.40;99.90
23813;DHT22;12087;45.190;5.688;2023-05-02T03:36:30;12.40;99.90
23813;DHT22;12087;45.190;5.688;2023-05-02T03:41:53;12.40;99.90
23813;DHT22;12087;45.190;5.688;2023-05-02T03:47:15;12.30;99.90
23813;DHT22;12087;45.190;5.688;2023-05-02T03:52:37;12.30;99.90
23813;DHT22;12087;45.190;5.688;2023-05-02T03:58:01;12.30;99.90
23813;DHT22;12087;45.190;5.688;2023-05-02T04:03:23;12.30;99.90
23813;DHT22;12087;45.190;5.688;2023-05-02T04:08:46;12.30;99.90
23813;DHT22;12087;45.190;5.688;2023-05-02T04:14:10;12.30;99.90
23813;DHT22;12087;45.190;5.688;2023-05-02T04:19:33;12.30;99.90
23813;DHT22;12087;45.190;5.688;2023-05-02T04:24:55;12.30;99.90
23813;DHT22;12087;45.190;5.688;2023-05-02T04:30:19;12.30;99.90
23813;DHT22;12087;45.190;5.688;2023-05-02T04:35:41;12.30;99.90
23813;DHT22;12087;45.190;5.688;2023-05-02T04:41:04;12.30;99.90
23813;DHT22;12087;45.190;5.688;2023-05-02T04:46:27;12.30;99.90
23813;DHT22;12087;45.190;5.688;2023-05-02T04:51:50;12.30;99.90
23813;DHT22;12087;45.190;5.688;2023-05-02T04:57:13;12.30;99.90
23813;DHT22;12087;45.190;5.688;2023-05-02T05:02:36;12.20;99.90
23813;DHT22;12087;45.190;5.688;2023-05-02T05:07:59;12.20;99.90
23813;DHT22;12087;45.190;5.688;2023-05-02T05:13:23;12.30;99.90
23813;DHT22;12087;45.190;5.688;2023-05-02T05:18:46;12.20;99.90
23813;DHT22;12087;45.190;5.688;2023-05-02T05:24:09;12.20;99.90
23813;DHT22;12087;45.190;5.688;2023-05-02T05:29:31;12.20;99.90
23813;DHT22;12087;45.190;5.688;2023-05-02T05:34:55;12.20;99.90
23813;DHT22;12087;45.190;5.688;2023-05-02T05:40:17;12.20;99.90
23813;DHT22;12087;45.190;5.688;2023-05-02T05:45:40;12.30;99.90
23813;DHT22;12087;45.190;5.688;2023-05-02T05:51:05;12.40;99.90
23813;DHT22;12087;45.190;5.688;2023-05-02T05:56:27;12.50;99.90
23813;DHT22;12087;45.190;5.688;2023-05-02T06:01:49;12.50;99.90
23813;DHT22;12087;45.190;5.688;2023-05-02T06:07:13;12.60;99.90
23813;DHT22;12087;45.190;5.688;2023-05-02T06:12:35;12.70;99.90
23813;DHT22;12087;45.190;5.688;2023-05-02T06:17:57;12.70;99.90
23813;DHT22;12087;45.190;5.688;2023-05-02T06:23:21;12.80;99.90
23813;DHT22;12087;45.190;5.688;2023-05-02T06:28:43;12.90;99.90
23813;DHT22;12087;45.190;5.688;2023-05-02T06:34:06;13.00;99.90
23813;DHT22;12087;45.190;5.688;2023-05-02T06:39:29;13.10;99.90
23813;DHT22;12087;45.190;5.688;2023-05-02T06:44:51;13.10;99.90
23813;DHT22;12087;45.190;5.688;2023-05-02T06:50:15;13.20;99.90
23813;DHT22;12087;45.190;5.688;2023-05-02T06:55:38;13.20;99.90
23813;DHT22;12087;45.190;5.688;2023-05-02T07:01:00;13.20;99.90
23813;DHT22;12087;45.190;5.688;2023-05-02T07:06:23;13.30;99.90
23813;DHT22;12087;45.190;5.688;2023-05-02T07:11:47;13.40;99.90
23813;DHT22;12087;45.190;5.688;2023-05-02T07:17:09;13.50;99.90
23813;DHT22;12087;45.190;5.688;2023-05-02T07:22:31;13.60;99.90
23813;DHT22;12087;45.190;5.688;2023-05-02T07:27:55;13.70;99.90
23813;DHT22;12087;45.190;5.688;2023-05-02T07:33:17;13.80;99.90
23813;DHT22;12087;45.190;5.688;2023-05-02T07:38:39;13.90;99.90
23813;DHT22;12087;45.190;5.688;2023-05-02T07:44:03;14.00;99.90
23813;DHT22;12087;45.190;5.688;2023-05-02T07:49:26;14.00;99.90
23813;DHT22;12087;45.190;5.688;2023-05-02T07:54:48;14.20;99.90
23813;DHT22;12087;45.190;5.688;2023-05-02T08:00:14;14.40;99.90
23813;DHT22;12087;45.190;5.688;2023-05-02T08:05:36;14.50;99.90
23813;DHT22;12087;45.190;5.688;2023-05-02T08:10:58;14.60;99.90
23813;DHT22;12087;45.190;5.688;2023-05-02T08:16:22;14.80;99.90
23813;DHT22;12087;45.190;5.688;2023-05-02T08:21:44;14.80;99.90
23813;DHT22;12087;45.190;5.688;2023-05-02T08:27:07;14.90;99.90
23813;DHT22;12087;45.190;5.688;2023-05-02T08:32:31;15.30;99.90
23813;DHT22;12087;45.190;5.688;2023-05-02T08:37:53;15.60;99.90
23813;DHT22;12087;45.190;5.688;2023-05-02T08:43:16;15.80;99.90
23813;DHT22;12087;45.190;5.688;2023-05-02T08:48:42;15.90;99.90
23813;DHT22;12087;45.190;5.688;2023-05-02T08:54:05;16.20;99.90
23813;DHT22;12087;45.190;5.688;2023-05-02T08:59:30;16.30;99.90
23813;DHT22;12087;45.190;5.688;2023-05-02T09:04:54;16.40;99.90
23813;DHT22;12087;45.190;5.688;2023-05-02T09:10:18;16.20;99.90
23813;DHT22;12087;45.190;5.688;2023-05-02T09:15:40;16.20;99.90
23813;DHT22;12087;45.190;5.688;2023-05-02T09:21:06;16.20;99.90
23813;DHT22;12087;45.190;5.688;2023-05-02T09:26:30;16.20;99.90
23813;DHT22;12087;45.190;5.688;2023-05-02T09:31:53;16.10;99.90
23813;DHT22;12087;45.190;5.688;2023-05-02T09:37:34;16.30;99.90
23813;DHT22;12087;45.190;5.688;2023-05-02T09:42:56;16.40;99.90
23813;DHT22;12087;45.190;5.688;2023-05-02T09:48:18;16.30;99.90
23813;DHT22;12087;45.190;5.688;2023-05-02T09:53:44;16.20;99.90
23813;DHT22;12087;45.190;5.688;2023-05-02T09:59:13;16.10;99.90
23813;DHT22;12087;45.190;5.688;2023-05-02T10:04:36;16.10;99.90
23813;DHT22;12087;45.190;5.688;2023-05-02T10:10:01;16.10;99.90
23813;DHT22;12087;45.190;5.688;2023-05-02T10:15:25;16.20;99.90
23813;DHT22;12087;45.190;5.688;2023-05-02T10:20:58;16.20;99.90
23813;DHT22;12087;45.190;5.688;2023-05-02T10:26:22;16.20;99.90
23813;DHT22;12087;45.190;5.688;2023-05-02T10:31:44;16.30;99.90
23813;DHT22;12087;45.190;5.688;2023-05-02T10:37:07;16.30;99.90
23813;DHT22;12087;45.190;5.688;2023-05-02T10:42:34;16.40;99.90
23813;DHT22;12087;45.190;5.688;2023-05-02T10:48:15;16.60;99.90
23813;DHT22;12087;45.190;5.688;2023-05-02T10:53:37;16.60;99.90
23813;DHT22;12087;45.190;5.688;2023-05-02T10:59:29;16.60;99.90
23813;DHT22;12087;45.190;5.688;2023-05-02T11:04:58;16.90;99.90
23813;DHT22;12087;45.190;5.688;2023-05-02T11:10:24;16.90;99.90
23813;DHT22;12087;45.190;5.688;2023-05-02T11:15:55;17.00;99.90
23813;DHT22;12087;45.190;5.688;2023-05-02T11:21:25;17.10;99.90
23813;DHT22;12087;45.190;5.688;2023-05-02T11:26:52;17.40;99.90
23813;DHT22;12087;45.190;5.688;2023-05-02T11:32:16;17.60;99.90
23813;DHT22;12087;45.190;5.688;2023-05-02T11:37:38;18.10;99.90
23813;DHT22;12087;45.190;5.688;2023-05-02T11:43:11;18.20;99.90
23813;DHT22;12087;45.190;5.688;2023-05-02T11:48:35;18.20;99.90
23813;DHT22;12087;45.190;5.688;2023-05-02T11:53:58;18.70;99.90
23813;DHT22;12087;45.190;5.688;2023-05-02T11:59:20;19.10;99.90
23813;DHT22;12087;45.190;5.688;2023-05-02T12:04:44;19.60;99.90
23813;DHT22;12087;45.190;5.688;2023-05-02T12:10:08;19.60;99.90
23813;DHT22;12087;45.190;5.688;2023-05-02T12:15:30;20.00;99.90
23813;DHT22;12087;45.190;5.688;2023-05-02T12:20:55;20.00;99.90
23813;DHT22;12087;45.190;5.688;2023-05-02T12:26:19;20.30;99.90
23813;DHT22;12087;45.190;5.688;2023-05-02T12:31:50;20.90;99.90
23813;DHT22;12087;45.190;5.688;2023-05-02T12:37:21;21.30;99.90
23813;DHT22;12087;45.190;5.688;2023-05-02T12:42:57;20.80;99.90
23813;DHT22;12087;45.190;5.688;2023-05-02T12:48:24;20.70;99.90
23813;DHT22;12087;45.190;5.688;2023-05-02T12:53:47;21.40;99.90
23813;DHT22;12087;45.190;5.688;2023-05-02T12:59:11;22.10;99.90
23813;DHT22;12087;45.190;5.688;2023-05-02T13:04:46;22.30;99.40
23813;DHT22;12087;45.190;5.688;2023-05-02T13:10:11;21.70;99.90
23813;DHT22;12087;45.190;5.688;2023-05-02T13:15:34;21.20;99.90
23813;DHT22;12087;45.190;5.688;2023-05-02T13:20:57;21.10;99.90
23813;DHT22;12087;45.190;5.688;2023-05-02T13:26:20;21.20;99.90
23813;DHT22;12087;45.190;5.688;2023-05-02T13:31:42;21.60;99.20
23813;DHT22;12087;45.190;5.688;2023-05-02T13:37:05;22.00;96.60
23813;DHT22;12087;45.190;5.688;2023-05-02T13:42:28;22.40;97.20
23813;DHT22;12087;45.190;5.688;2023-05-02T13:47:50;22.60;96.80
23813;DHT22;12087;45.190;5.688;2023-05-02T13:53:13;22.90;97.00
23813;DHT22;12087;45.190;5.688;2023-05-02T13:58:37;23.10;95.40
23813;DHT22;12087;45.190;5.688;2023-05-02T14:04:00;23.40;96.10
23813;DHT22;12087;45.190;5.688;2023-05-02T14:09:28;23.60;93.80
23813;DHT22;12087;45.190;5.688;2023-05-02T14:14:51;23.00;95.30
23813;DHT22;12087;45.190;5.688;2023-05-02T14:20:13;23.10;93.30
23813;DHT22;12087;45.190;5.688;2023-05-02T14:25:36;22.70;93.70
23813;DHT22;12087;45.190;5.688;2023-05-02T14:31:00;22.90;94.50
23813;DHT22;12087;45.190;5.688;2023-05-02T14:36:22;23.00;93.50
23813;DHT22;12087;45.190;5.688;2023-05-02T14:41:44;23.00;92.40
23813;DHT22;12087;45.190;5.688;2023-05-02T14:47:08;22.80;93.30
23813;DHT22;12087;45.190;5.688;2023-05-02T14:52:30;22.90;94.90
23813;DHT22;12087;45.190;5.688;2023-05-02T14:57:52;22.70;93.40
23813;DHT22;12087;45.190;5.688;2023-05-02T15:03:16;22.70;91.90
23813;DHT22;12087;45.190;5.688;2023-05-02T15:08:39;22.40;91.50
23813;DHT22;12087;45.190;5.688;2023-05-02T15:14:01;22.10;93.40
23813;DHT22;12087;45.190;5.688;2023-05-02T15:19:25;22.10;93.40
23813;DHT22;12087;45.190;5.688;2023-05-02T15:24:47;21.90;93.20
23813;DHT22;12087;45.190;5.688;2023-05-02T15:30:10;21.80;93.30
23813;DHT22;12087;45.190;5.688;2023-05-02T15:35:34;21.80;90.50
23813;DHT22;12087;45.190;5.688;2023-05-02T15:40:58;21.80;91.60
23813;DHT22;12087;45.190;5.688;2023-05-02T15:46:20;21.80;88.00
23813;DHT22;12087;45.190;5.688;2023-05-02T15:51:44;21.70;86.30
23813;DHT22;12087;45.190;5.688;2023-05-02T15:57:06;21.70;84.30
23813;DHT22;12087;45.190;5.688;2023-05-02T16:02:28;21.70;84.80
23813;DHT22;12087;45.190;5.688;2023-05-02T16:07:52;21.70;82.20
23813;DHT22;12087;45.190;5.688;2023-05-02T16:13:15;21.60;84.90
23813;DHT22;12087;45.190;5.688;2023-05-02T16:18:38;21.50;82.20
23813;DHT22;12087;45.190;5.688;2023-05-02T16:24:02;21.40;81.20
23813;DHT22;12087;45.190;5.688;2023-05-02T16:29:25;21.30;77.20
23813;DHT22;12087;45.190;5.688;2023-05-02T16:34:47;21.20;77.50
23813;DHT22;12087;45.190;5.688;2023-05-02T16:40:12;21.10;77.00
23813;DHT22;12087;45.190;5.688;2023-05-02T16:45:34;21.10;77.00
23813;DHT22;12087;45.190;5.688;2023-05-02T16:50:56;21.00;75.50
23813;DHT22;12087;45.190;5.688;2023-05-02T16:56:21;20.90;75.10
23813;DHT22;12087;45.190;5.688;2023-05-02T17:01:43;20.80;76.80
23813;DHT22;12087;45.190;5.688;2023-05-02T17:07:06;20.80;77.00
23813;DHT22;12087;45.190;5.688;2023-05-02T17:12:32;20.70;78.70
23813;DHT22;12087;45.190;5.688;2023-05-02T17:17:54;20.60;80.10
23813;DHT22;12087;45.190;5.688;2023-05-02T17:23:17;20.40;79.80
23813;DHT22;12087;45.190;5.688;2023-05-02T17:28:41;20.30;80.40
23813;DHT22;12087;45.190;5.688;2023-05-02T17:34:03;20.10;81.80
23813;DHT22;12087;45.190;5.688;2023-05-02T17:39:26;20.00;80.40
23813;DHT22;12087;45.190;5.688;2023-05-02T17:44:51;19.90;80.40
23813;DHT22;12087;45.190;5.688;2023-05-02T17:50:13;19.90;82.20
23813;DHT22;12087;45.190;5.688;2023-05-02T17:55:36;19.80;80.50
23813;DHT22;12087;45.190;5.688;2023-05-02T18:01:07;19.70;81.90
23813;DHT22;12087;45.190;5.688;2023-05-02T18:06:29;19.70;79.60
23813;DHT22;12087;45.190;5.688;2023-05-02T18:11:52;19.60;82.70
23813;DHT22;12087;45.190;5.688;2023-05-02T18:17:18;19.50;81.30
23813;DHT22;12087;45.190;5.688;2023-05-02T18:22:41;19.40;83.20
23813;DHT22;12087;45.190;5.688;2023-05-02T18:28:03;19.40;82.70
23813;DHT22;12087;45.190;5.688;2023-05-02T18:33:27;19.30;79.90
23813;DHT22;12087;45.190;5.688;2023-05-02T18:38:49;19.20;80.40
23813;DHT22;12087;45.190;5.688;2023-05-02T18:44:11;19.10;80.30
23813;DHT22;12087;45.190;5.688;2023-05-02T18:49:35;19.10;81.40
23813;DHT22;12087;45.190;5.688;2023-05-02T18:54:57;19.00;82.40
23813;DHT22;12087;45.190;5.688;2023-05-02T19:00:19;18.80;83.10
23813;DHT22;12087;45.190;5.688;2023-05-02T19:05:44;18.80;82.80
23813;DHT22;12087;45.190;5.688;2023-05-02T19:11:07;18.60;82.40
23813;DHT22;12087;45.190;5.688;2023-05-02T19:16:29;18.60;83.40
23813;DHT22;12087;45.190;5.688;2023-05-02T19:21:53;18.50;85.90
23813;DHT22;12087;45.190;5.688;2023-05-02T19:27:15;18.40;87.80
23813;DHT22;12087;45.190;5.688;2023-05-02T19:32:37;18.30;88.20
23813;DHT22;12087;45.190;5.688;2023-05-02T19:38:01;18.10;89.40
23813;DHT22;12087;45.190;5.688;2023-05-02T19:43:23;18.10;87.40
23813;DHT22;12087;45.190;5.688;2023-05-02T19:48:45;18.00;87.20
23813;DHT22;12087;45.190;5.688;2023-05-02T19:54:09;17.90;87.10
23813;DHT22;12087;45.190;5.688;2023-05-02T19:59:31;17.80;87.50
23813;DHT22;12087;45.190;5.688;2023-05-02T20:04:54;17.80;89.30
23813;DHT22;12087;45.190;5.688;2023-05-02T20:10:17;17.70;87.20
23813;DHT22;12087;45.190;5.688;2023-05-02T20:15:40;17.60;87.10
23813;DHT22;12087;45.190;5.688;2023-05-02T20:21:04;17.60;89.70
23813;DHT22;12087;45.190;5.688;2023-05-02T20:26:28;17.50;89.50
23813;DHT22;12087;45.190;5.688;2023-05-02T20:31:53;17.40;90.90
23813;DHT22;12087;45.190;5.688;2023-05-02T20:37:15;17.40;91.40
23813;DHT22;12087;45.190;5.688;2023-05-02T20:42:39;17.30;91.50
23813;DHT22;12087;45.190;5.688;2023-05-02T20:48:02;17.20;91.80
23813;DHT22;12087;45.190;5.688;2023-05-02T20:53:24;17.20;91.70
23813;DHT22;12087;45.190;5.688;2023-05-02T20:58:48;17.10;92.20
23813;DHT22;12087;45.190;5.688;2023-05-02T21:04:10;17.10;92.80
23813;DHT22;12087;45.190;5.688;2023-05-02T21:09:32;17.00;93.60
23813;DHT22;12087;45.190;5.688;2023-05-02T21:14:56;16.90;94.30
23813;DHT22;12087;45.190;5.688;2023-05-02T21:20:18;16.80;94.10
23813;DHT22;12087;45.190;5.688;2023-05-02T21:25:41;16.70;95.50
23813;DHT22;12087;45.190;5.688;2023-05-02T21:31:05;16.60;95.10
23813;DHT22;12087;45.190;5.688;2023-05-02T21:36:28;16.50;95.40
23813;DHT22;12087;45.190;5.688;2023-05-02T21:41:50;16.50;96.00
23813;DHT22;12087;45.190;5.688;2023-05-02T21:47:14;16.40;96.30
23813;DHT22;12087;45.190;5.688;2023-05-02T21:52:36;16.40;96.80
23813;DHT22;12087;45.190;5.688;2023-05-02T21:57:58;16.30;97.40
23813;DHT22;12087;45.190;5.688;2023-05-02T22:03:22;16.20;97.50
23813;DHT22;12087;45.190;5.688;2023-05-02T22:08:44;16.10;98.80
23813;DHT22;12087;45.190;5.688;2023-05-02T22:14:07;16.00;98.80
23813;DHT22;12087;45.190;5.688;2023-05-02T22:19:30;15.90;99.60
23813;DHT22;12087;45.190;5.688;2023-05-02T22:24:53;15.90;99.90
23813;DHT22;12087;45.190;5.688;2023-05-02T22:30:16;15.90;99.90
23813;DHT22;12087;45.190;5.688;2023-05-02T22:35:39;15.80;99.90
23813;DHT22;12087;45.190;5.688;2023-05-02T22:41:02;15.70;99.90
23813;DHT22;12087;45.190;5.688;2023-05-02T22:46:26;15.60;99.90
23813;DHT22;12087;45.190;5.688;2023-05-02T22:51:49;15.50;99.90
23813;DHT22;12087;45.190;5.688;2023-05-02T22:57:11;15.40;99.90
23813;DHT22;12087;45.190;5.688;2023-05-02T23:02:35;15.40;99.90
23813;DHT22;12087;45.190;5.688;2023-05-02T23:08:00;15.40;99.90
23813;DHT22;12087;45.190;5.688;2023-05-02T23:13:22;15.40;99.90
23813;DHT22;12087;45.190;5.688;2023-05-02T23:18:46;15.30;99.90
23813;DHT22;12087;45.190;5.688;2023-05-02T23:24:10;15.20;99.90
23813;DHT22;12087;45.190;5.688;2023-05-02T23:29:32;15.20;99.90
23813;DHT22;12087;45.190;5.688;2023-05-02T23:34:55;15.10;99.90
23813;DHT22;12087;45.190;5.688;2023-05-02T23:40:18;15.00;99.90
23813;DHT22;12087;45.190;5.688;2023-05-02T23:45:41;15.00;99.90
23813;DHT22;12087;45.190;5.688;2023-05-02T23:51:03;14.90;99.90
23813;DHT22;12087;45.190;5.688;2023-05-02T23:56:26;14.80;99.90
